sensor_id;sensor_type;location;lat;lon;timestamp;temperature;humidity
40059;SHT31;25763;49.972;8.568;2023-04-28T00:01:44;12.43;62.81
40059;SHT31;25763;49.972;8.568;2023-04-28T00:04:10;12.40;62.83
40059;SHT31;25763;49.972;8.568;2023-04-28T00:06:35;12.47;62.94
40059;SHT31;25763;49.972;8.568;2023-04-28T00:09:01;12.49;62.83
40059;SHT31;25763;49.972;8.568;2023-04-28T00:11:27;12.45;62.06
40059;SHT31;25763;49.972;8.568;2023-04-28T00:13:52;12.39;61.58
40059;SHT31;25763;49.972;8.568;2023-04-28T00:16:18;12.36;61.66
40059;SHT31;25763;49.972;8.568;2023-04-28T00:18:43;12.36;61.90
40059;SHT31;25763;49.972;8.568;2023-04-28T00:21:09;12.30;62.10
40059;SHT31;25763;49.972;8.568;2023-04-28T00:23:34;12.28;62.35
40059;SHT31;25763;49.972;8.568;2023-04-28T00:25:59;12.22;63.00
40059;SHT31;25763;49.972;8.568;2023-04-28T00:28:25;12.15;63.34
40059;SHT31;25763;49.972;8.568;2023-04-28T00:30:50;12.08;63.80
40059;SHT31;25763;49.972;8.568;2023-04-28T00:33:15;11.98;64.09
40059;SHT31;25763;49.972;8.568;2023-04-28T00:35:41;11.94;64.26
40059;SHT31;25763;49.972;8.568;2023-04-28T00:38:07;12.02;64.01
40059;SHT31;25763;49.972;8.568;2023-04-28T00:40:36;11.99;64.17
40059;SHT31;25763;49.972;8.568;2023-04-28T00:43:02;12.01;64.06
40059;SHT31;25763;49.972;8.568;2023-04-28T00:45:28;11.99;64.23
40059;SHT31;25763;49.972;8.568;2023-04-28T00:47:54;11.95;64.33
40059;SHT31;25763;49.972;8.568;2023-04-28T00:50:20;11.94;64.33
40059;SHT31;25763;49.972;8.568;2023-04-28T00:52:46;12.02;64.24
40059;SHT31;25763;49.972;8.568;2023-04-28T00:55:13;12.04;64.68
40059;SHT31;25763;49.972;8.568;2023-04-28T00:57:40;12.08;64.91
40059;SHT31;25763;49.972;8.568;2023-04-28T01:00:06;12.11;64.73
40059;SHT31;25763;49.972;8.568;2023-04-28T01:02:32;12.12;64.50
40059;SHT31;25763;49.972;8.568;2023-04-28T01:04:58;12.15;64.57
40059;SHT31;25763;49.972;8.568;2023-04-28T01:07:24;12.12;64.82
40059;SHT31;25763;49.972;8.568;2023-04-28T01:09:49;12.04;64.41
40059;SHT31;25763;49.972;8.568;2023-04-28T01:12:15;11.99;64.75
40059;SHT31;25763;49.972;8.568;2023-04-28T01:14:40;12.01;64.80
40059;SHT31;25763;49.972;8.568;2023-04-28T01:17:07;11.99;64.70
40059;SHT31;25763;49.972;8.568;2023-04-28T01:19:32;11.98;64.49
40059;SHT31;25763;49.972;8.568;2023-04-28T01:21:58;11.87;65.10
40059;SHT31;25763;49.972;8.568;2023-04-28T01:24:23;11.90;64.95
40059;SHT31;25763;49.972;8.568;2023-04-28T01:26:48;12.04;64.45
40059;SHT31;25763;49.972;8.568;2023-04-28T01:29:14;11.99;65.13
40059;SHT31;25763;49.972;8.568;2023-04-28T01:31:39;11.95;65.76
40059;SHT31;25763;49.972;8.568;2023-04-28T01:34:05;11.97;65.89
40059;SHT31;25763;49.972;8.568;2023-04-28T01:36:30;12.05;66.47
40059;SHT31;25763;49.972;8.568;2023-04-28T01:38:57;12.11;66.66
40059;SHT31;25763;49.972;8.568;2023-04-28T01:41:22;11.95;67.81
40059;SHT31;25763;49.972;8.568;2023-04-28T01:43:48;11.93;68.07
40059;SHT31;25763;49.972;8.568;2023-04-28T01:46:13;11.93;69.35
40059;SHT31;25763;49.972;8.568;2023-04-28T01:48:38;11.93;69.75
40059;SHT31;25763;49.972;8.568;2023-04-28T01:51:04;11.76;71.40
40059;SHT31;25763;49.972;8.568;2023-04-28T01:53:29;11.69;72.39
40059;SHT31;25763;49.972;8.568;2023-04-28T01:55:55;11.77;71.48
40059;SHT31;25763;49.972;8.568;2023-04-28T01:58:20;11.80;72.09
40059;SHT31;25763;49.972;8.568;2023-04-28T02:00:46;11.80;71.88
40059;SHT31;25763;49.972;8.568;2023-04-28T02:03:12;11.84;71.12
40059;SHT31;25763;49.972;8.568;2023-04-28T02:05:37;11.90;70.90
40059;SHT31;25763;49.972;8.568;2023-04-28T02:08:02;11.90;71.13
40059;SHT31;25763;49.972;8.568;2023-04-28T02:10:29;11.93;70.83
40059;SHT31;25763;49.972;8.568;2023-04-28T02:12:54;11.91;70.45
40059;SHT31;25763;49.972;8.568;2023-04-28T02:15:20;11.93;70.41
40059;SHT31;25763;49.972;8.568;2023-04-28T02:17:45;11.95;70.19
40059;SHT31;25763;49.972;8.568;2023-04-28T02:20:11;11.95;70.42
40059;SHT31;25763;49.972;8.568;2023-04-28T02:22:38;11.99;70.14
40059;SHT31;25763;49.972;8.568;2023-04-28T02:25:04;11.98;70.26
40059;SHT31;25763;49.972;8.568;2023-04-28T02:27:29;11.99;70.45
40059;SHT31;25763;49.972;8.568;2023-04-28T02:29:55;11.86;71.57
40059;SHT31;25763;49.972;8.568;2023-04-28T02:32:20;11.71;72.27
40059;SHT31;25763;49.972;8.568;2023-04-28T02:34:46;11.65;73.04
40059;SHT31;25763;49.972;8.568;2023-04-28T02:37:11;11.67;72.98
40059;SHT31;25763;49.972;8.568;2023-04-28T02:39:36;11.71;73.08
40059;SHT31;25763;49.972;8.568;2023-04-28T02:42:02;11.59;74.57
40059;SHT31;25763;49.972;8.568;2023-04-28T02:44:29;11.39;75.01
40059;SHT31;25763;49.972;8.568;2023-04-28T02:46:55;11.27;75.44
40059;SHT31;25763;49.972;8.568;2023-04-28T02:49:20;11.21;76.08
40059;SHT31;25763;49.972;8.568;2023-04-28T02:51:46;11.24;76.23
40059;SHT31;25763;49.972;8.568;2023-04-28T02:54:11;11.36;75.36
40059;SHT31;25763;49.972;8.568;2023-04-28T02:56:36;11.34;77.03
40059;SHT31;25763;49.972;8.568;2023-04-28T02:59:05;11.24;78.19
40059;SHT31;25763;49.972;8.568;2023-04-28T03:01:30;11.11;78.55
40059;SHT31;25763;49.972;8.568;2023-04-28T03:03:55;11.00;78.35
40059;SHT31;25763;49.972;8.568;2023-04-28T03:06:21;11.07;77.41
40059;SHT31;25763;49.972;8.568;2023-04-28T03:08:46;11.24;76.20
40059;SHT31;25763;49.972;8.568;2023-04-28T03:11:11;11.29;76.32
40059;SHT31;25763;49.972;8.568;2023-04-28T03:13:37;11.29;76.89
40059;SHT31;25763;49.972;8.568;2023-04-28T03:16:02;11.27;77.17
40059;SHT31;25763;49.972;8.568;2023-04-28T03:18:28;11.31;76.40
40059;SHT31;25763;49.972;8.568;2023-04-28T03:20:53;11.41;75.46
40059;SHT31;25763;49.972;8.568;2023-04-28T03:23:18;11.48;75.07
40059;SHT31;25763;49.972;8.568;2023-04-28T03:25:44;11.56;75.23
40059;SHT31;25763;49.972;8.568;2023-04-28T03:28:09;11.42;76.72
40059;SHT31;25763;49.972;8.568;2023-04-28T03:30:35;11.27;77.71
40059;SHT31;25763;49.972;8.568;2023-04-28T03:33:01;11.31;77.32
40059;SHT31;25763;49.972;8.568;2023-04-28T03:35:26;11.22;77.69
40059;SHT31;25763;49.972;8.568;2023-04-28T03:37:52;11.14;77.68
40059;SHT31;25763;49.972;8.568;2023-04-28T03:40:17;11.17;77.48
40059;SHT31;25763;49.972;8.568;2023-04-28T03:42:43;11.10;78.04
40059;SHT31;25763;49.972;8.568;2023-04-28T03:45:08;11.10;77.15
40059;SHT31;25763;49.972;8.568;2023-04-28T03:47:35;11.21;76.80
40059;SHT31;25763;49.972;8.568;2023-04-28T03:50:00;11.06;77.60
40059;SHT31;25763;49.972;8.568;2023-04-28T03:52:25;11.04;77.95
40059;SHT31;25763;49.972;8.568;2023-04-28T03:54:51;10.97;78.16
40059;SHT31;25763;49.972;8.568;2023-04-28T03:57:17;10.99;78.78
40059;SHT31;25763;49.972;8.568;2023-04-28T03:59:42;10.99;78.45
40059;SHT31;25763;49.972;8.568;2023-04-28T04:02:07;11.03;77.93
40059;SHT31;25763;49.972;8.568;2023-04-28T04:04:33;10.93;78.53
40059;SHT31;25763;49.972;8.568;2023-04-28T04:06:58;10.99;78.99
40059;SHT31;25763;49.972;8.568;2023-04-28T04:09:24;10.83;80.45
40059;SHT31;25763;49.972;8.568;2023-04-28T04:11:49;10.85;81.03
40059;SHT31;25763;49.972;8.568;2023-04-28T04:14:15;10.89;81.27
40059;SHT31;25763;49.972;8.568;2023-04-28T04:16:40;10.94;80.80
40059;SHT31;25763;49.972;8.568;2023-04-28T04:19:05;10.96;81.02
40059;SHT31;25763;49.972;8.568;2023-04-28T04:21:31;11.04;79.68
40059;SHT31;25763;49.972;8.568;2023-04-28T04:23:56;10.94;80.71
40059;SHT31;25763;49.972;8.568;2023-04-28T04:26:22;11.00;80.57
40059;SHT31;25763;49.972;8.568;2023-04-28T04:28:47;11.10;80.47
40059;SHT31;25763;49.972;8.568;2023-04-28T04:31:13;10.96;80.72
40059;SHT31;25763;49.972;8.568;2023-04-28T04:33:39;10.85;81.13
40059;SHT31;25763;49.972;8.568;2023-04-28T04:36:05;10.77;81.49
40059;SHT31;25763;49.972;8.568;2023-04-28T04:38:30;10.96;80.28
40059;SHT31;25763;49.972;8.568;2023-04-28T04:40:56;11.00;80.57
40059;SHT31;25763;49.972;8.568;2023-04-28T04:43:21;10.94;81.09
40059;SHT31;25763;49.972;8.568;2023-04-28T04:45:47;10.96;81.29
40059;SHT31;25763;49.972;8.568;2023-04-28T04:48:12;10.90;81.04
40059;SHT31;25763;49.972;8.568;2023-04-28T04:50:39;10.86;81.42
40059;SHT31;25763;49.972;8.568;2023-04-28T04:53:05;11.01;80.81
40059;SHT31;25763;49.972;8.568;2023-04-28T04:55:30;10.96;81.04
40059;SHT31;25763;49.972;8.568;2023-04-28T04:57:56;10.96;81.33
40059;SHT31;25763;49.972;8.568;2023-04-28T05:00:21;10.94;81.32
40059;SHT31;25763;49.972;8.568;2023-04-28T05:02:46;11.06;80.86
40059;SHT31;25763;49.972;8.568;2023-04-28T05:05:12;11.15;79.98
40059;SHT31;25763;49.972;8.568;2023-04-28T05:07:37;11.28;79.44
40059;SHT31;25763;49.972;8.568;2023-04-28T05:10:03;11.35;78.91
40059;SHT31;25763;49.972;8.568;2023-04-28T05:12:28;11.39;78.69
40059;SHT31;25763;49.972;8.568;2023-04-28T05:14:54;11.48;78.25
40059;SHT31;25763;49.972;8.568;2023-04-28T05:17:19;11.51;78.19
40059;SHT31;25763;49.972;8.568;2023-04-28T05:19:44;11.51;78.98
40059;SHT31;25763;49.972;8.568;2023-04-28T05:22:10;11.56;78.49
40059;SHT31;25763;49.972;8.568;2023-04-28T05:24:36;11.49;79.84
40059;SHT31;25763;49.972;8.568;2023-04-28T05:27:01;11.52;79.39
40059;SHT31;25763;49.972;8.568;2023-04-28T05:29:27;11.56;78.87
40059;SHT31;25763;49.972;8.568;2023-04-28T05:31:52;11.58;79.11
40059;SHT31;25763;49.972;8.568;2023-04-28T05:34:17;11.59;79.35
40059;SHT31;25763;49.972;8.568;2023-04-28T05:36:43;11.62;78.96
40059;SHT31;25763;49.972;8.568;2023-04-28T05:39:08;11.65;78.61
40059;SHT31;25763;49.972;8.568;2023-04-28T05:41:34;11.69;78.58
40059;SHT31;25763;49.972;8.568;2023-04-28T05:44:03;11.73;78.39
40059;SHT31;25763;49.972;8.568;2023-04-28T05:46:28;11.73;78.81
40059;SHT31;25763;49.972;8.568;2023-04-28T05:48:53;11.79;78.23
40059;SHT31;25763;49.972;8.568;2023-04-28T05:51:19;11.81;78.23
40059;SHT31;25763;49.972;8.568;2023-04-28T05:53:44;11.87;78.54
40059;SHT31;25763;49.972;8.568;2023-04-28T05:56:15;11.84;79.48
40059;SHT31;25763;49.972;8.568;2023-04-28T05:58:41;11.87;79.16
40059;SHT31;25763;49.972;8.568;2023-04-28T06:01:08;11.81;79.79
40059;SHT31;25763;49.972;8.568;2023-04-28T06:03:34;11.70;80.12
40059;SHT31;25763;49.972;8.568;2023-04-28T06:05:59;11.48;81.59
40059;SHT31;25763;49.972;8.568;2023-04-28T06:08:24;11.52;82.19
40059;SHT31;25763;49.972;8.568;2023-04-28T06:10:50;11.44;82.72
40059;SHT31;25763;49.972;8.568;2023-04-28T06:13:15;11.10;83.81
40059;SHT31;25763;49.972;8.568;2023-04-28T06:15:41;11.01;84.41
40059;SHT31;25763;49.972;8.568;2023-04-28T06:18:06;10.96;84.76
40059;SHT31;25763;49.972;8.568;2023-04-28T06:20:33;10.93;85.41
40059;SHT31;25763;49.972;8.568;2023-04-28T06:22:59;10.96;85.78
40059;SHT31;25763;49.972;8.568;2023-04-28T06:25:25;10.86;85.99
40059;SHT31;25763;49.972;8.568;2023-04-28T06:27:50;10.80;86.43
40059;SHT31;25763;49.972;8.568;2023-04-28T06:30:17;10.97;86.35
40059;SHT31;25763;49.972;8.568;2023-04-28T06:32:45;11.11;85.65
40059;SHT31;25763;49.972;8.568;2023-04-28T06:35:11;10.94;85.49
40059;SHT31;25763;49.972;8.568;2023-04-28T06:37:36;10.80;86.10
40059;SHT31;25763;49.972;8.568;2023-04-28T06:40:02;10.87;86.12
40059;SHT31;25763;49.972;8.568;2023-04-28T06:42:27;10.93;86.11
40059;SHT31;25763;49.972;8.568;2023-04-28T06:44:53;10.92;85.52
40059;SHT31;25763;49.972;8.568;2023-04-28T06:47:18;11.01;85.70
40059;SHT31;25763;49.972;8.568;2023-04-28T06:49:44;11.11;85.32
40059;SHT31;25763;49.972;8.568;2023-04-28T06:52:11;11.06;85.27
40059;SHT31;25763;49.972;8.568;2023-04-28T06:54:38;11.18;85.24
40059;SHT31;25763;49.972;8.568;2023-04-28T06:57:03;11.20;85.42
40059;SHT31;25763;49.972;8.568;2023-04-28T06:59:29;11.06;85.39
40059;SHT31;25763;49.972;8.568;2023-04-28T07:01:55;10.87;86.06
40059;SHT31;25763;49.972;8.568;2023-04-28T07:04:21;10.94;86.35
40059;SHT31;25763;49.972;8.568;2023-04-28T07:06:46;10.86;86.34
40059;SHT31;25763;49.972;8.568;2023-04-28T07:09:12;10.76;86.53
40059;SHT31;25763;49.972;8.568;2023-04-28T07:11:37;10.75;86.67
40059;SHT31;25763;49.972;8.568;2023-04-28T07:14:02;10.80;86.89
40059;SHT31;25763;49.972;8.568;2023-04-28T07:16:28;10.83;87.04
40059;SHT31;25763;49.972;8.568;2023-04-28T07:18:53;10.86;86.86
40059;SHT31;25763;49.972;8.568;2023-04-28T07:21:18;10.86;87.16
40059;SHT31;25763;49.972;8.568;2023-04-28T07:23:45;10.96;87.10
40059;SHT31;25763;49.972;8.568;2023-04-28T07:26:11;11.00;86.74
40059;SHT31;25763;49.972;8.568;2023-04-28T07:28:40;11.00;86.62
40059;SHT31;25763;49.972;8.568;2023-04-28T07:31:05;11.04;86.26
40059;SHT31;25763;49.972;8.568;2023-04-28T07:33:31;11.29;86.07
40059;SHT31;25763;49.972;8.568;2023-04-28T07:35:56;11.45;85.54
40059;SHT31;25763;49.972;8.568;2023-04-28T07:38:21;11.35;84.73
40059;SHT31;25763;49.972;8.568;2023-04-28T07:40:47;11.25;85.05
40059;SHT31;25763;49.972;8.568;2023-04-28T07:43:12;11.42;85.35
40059;SHT31;25763;49.972;8.568;2023-04-28T07:45:39;11.52;85.32
40059;SHT31;25763;49.972;8.568;2023-04-28T07:48:05;11.44;85.45
40059;SHT31;25763;49.972;8.568;2023-04-28T07:50:30;11.58;85.38
40059;SHT31;25763;49.972;8.568;2023-04-28T07:52:57;11.61;85.72
40059;SHT31;25763;49.972;8.568;2023-04-28T07:55:23;11.67;85.76
40059;SHT31;25763;49.972;8.568;2023-04-28T07:57:48;11.84;85.00
40059;SHT31;25763;49.972;8.568;2023-04-28T08:00:14;11.94;84.72
40059;SHT31;25763;49.972;8.568;2023-04-28T08:02:40;12.08;84.38
40059;SHT31;25763;49.972;8.568;2023-04-28T08:05:05;12.08;84.08
40059;SHT31;25763;49.972;8.568;2023-04-28T08:07:32;11.91;84.22
40059;SHT31;25763;49.972;8.568;2023-04-28T08:09:57;12.12;84.03
40059;SHT31;25763;49.972;8.568;2023-04-28T08:12:23;12.29;83.43
40059;SHT31;25763;49.972;8.568;2023-04-28T08:14:48;12.40;83.40
40059;SHT31;25763;49.972;8.568;2023-04-28T08:17:13;12.53;82.85
40059;SHT31;25763;49.972;8.568;2023-04-28T08:19:39;12.60;82.47
40059;SHT31;25763;49.972;8.568;2023-04-28T08:22:04;12.71;82.68
40059;SHT31;25763;49.972;8.568;2023-04-28T08:24:31;12.74;82.66
40059;SHT31;25763;49.972;8.568;2023-04-28T08:27:00;12.67;82.40
40059;SHT31;25763;49.972;8.568;2023-04-28T08:29:30;12.71;82.17
40059;SHT31;25763;49.972;8.568;2023-04-28T08:31:56;12.82;82.11
40059;SHT31;25763;49.972;8.568;2023-04-28T08:34:22;12.95;81.95
40059;SHT31;25763;49.972;8.568;2023-04-28T08:36:47;13.02;82.00
40059;SHT31;25763;49.972;8.568;2023-04-28T08:39:12;12.91;81.82
40059;SHT31;25763;49.972;8.568;2023-04-28T08:41:38;12.99;81.99
40059;SHT31;25763;49.972;8.568;2023-04-28T08:44:08;13.11;81.66
40059;SHT31;25763;49.972;8.568;2023-04-28T08:46:34;13.11;81.64
40059;SHT31;25763;49.972;8.568;2023-04-28T08:49:00;12.89;81.93
40059;SHT31;25763;49.972;8.568;2023-04-28T08:51:34;12.97;81.80
40059;SHT31;25763;49.972;8.568;2023-04-28T08:54:02;13.24;81.60
40059;SHT31;25763;49.972;8.568;2023-04-28T08:56:32;13.34;81.24
40059;SHT31;25763;49.972;8.568;2023-04-28T08:59:03;13.50;80.67
40059;SHT31;25763;49.972;8.568;2023-04-28T09:01:30;13.59;80.51
40059;SHT31;25763;49.972;8.568;2023-04-28T09:03:55;13.68;80.42
40059;SHT31;25763;49.972;8.568;2023-04-28T09:06:21;13.57;80.59
40059;SHT31;25763;49.972;8.568;2023-04-28T09:08:47;13.64;80.10
40059;SHT31;25763;49.972;8.568;2023-04-28T09:11:12;13.82;80.30
40059;SHT31;25763;49.972;8.568;2023-04-28T09:13:39;13.96;79.78
40059;SHT31;25763;49.972;8.568;2023-04-28T09:16:05;14.03;79.69
40059;SHT31;25763;49.972;8.568;2023-04-28T09:18:31;14.21;79.67
40059;SHT31;25763;49.972;8.568;2023-04-28T09:21:07;14.45;79.44
40059;SHT31;25763;49.972;8.568;2023-04-28T09:23:34;14.47;78.78
40059;SHT31;25763;49.972;8.568;2023-04-28T09:26:05;14.50;78.38
40059;SHT31;25763;49.972;8.568;2023-04-28T09:28:32;14.54;78.23
40059;SHT31;25763;49.972;8.568;2023-04-28T09:30:57;14.40;78.77
40059;SHT31;25763;49.972;8.568;2023-04-28T09:33:23;14.30;78.91
40059;SHT31;25763;49.972;8.568;2023-04-28T09:35:48;14.41;78.86
40059;SHT31;25763;49.972;8.568;2023-04-28T09:38:15;14.54;79.01
40059;SHT31;25763;49.972;8.568;2023-04-28T09:40:56;14.72;79.08
40059;SHT31;25763;49.972;8.568;2023-04-28T09:45:56;14.38;79.32
40059;SHT31;25763;49.972;8.568;2023-04-28T09:48:33;14.48;79.38
40059;SHT31;25763;49.972;8.568;2023-04-28T09:51:00;14.69;78.73
40059;SHT31;25763;49.972;8.568;2023-04-28T09:53:26;14.87;78.93
40059;SHT31;25763;49.972;8.568;2023-04-28T09:55:53;14.85;78.79
40059;SHT31;25763;49.972;8.568;2023-04-28T09:58:20;14.71;79.07
40059;SHT31;25763;49.972;8.568;2023-04-28T10:00:51;14.61;79.20
40059;SHT31;25763;49.972;8.568;2023-04-28T10:03:20;14.87;78.77
40059;SHT31;25763;49.972;8.568;2023-04-28T10:05:47;14.14;80.06
40059;SHT31;25763;49.972;8.568;2023-04-28T10:08:13;14.12;81.31
40059;SHT31;25763;49.972;8.568;2023-04-28T10:10:39;14.12;81.08
40059;SHT31;25763;49.972;8.568;2023-04-28T10:13:06;14.54;80.37
40059;SHT31;25763;49.972;8.568;2023-04-28T10:15:32;14.90;80.09
40059;SHT31;25763;49.972;8.568;2023-04-28T10:17:59;15.34;79.30
40059;SHT31;25763;49.972;8.568;2023-04-28T10:20:24;15.37;78.17
40059;SHT31;25763;49.972;8.568;2023-04-28T10:25:53;15.45;78.04
40059;SHT31;25763;49.972;8.568;2023-04-28T10:28:21;15.35;78.14
40059;SHT31;25763;49.972;8.568;2023-04-28T10:33:36;15.59;78.55
40059;SHT31;25763;49.972;8.568;2023-04-28T10:36:02;15.77;78.35
40059;SHT31;25763;49.972;8.568;2023-04-28T10:38:28;16.10;77.71
40059;SHT31;25763;49.972;8.568;2023-04-28T10:40:54;15.97;77.35
40059;SHT31;25763;49.972;8.568;2023-04-28T10:48:19;16.68;76.55
40059;SHT31;25763;49.972;8.568;2023-04-28T10:56:24;17.33;74.90
40059;SHT31;25763;49.972;8.568;2023-04-28T10:58:54;17.63;74.06
40059;SHT31;25763;49.972;8.568;2023-04-28T11:08:44;17.78;73.21
40059;SHT31;25763;49.972;8.568;2023-04-28T11:11:14;17.30;73.69
40059;SHT31;25763;49.972;8.568;2023-04-28T11:13:39;17.46;74.04
40059;SHT31;25763;49.972;8.568;2023-04-28T11:16:05;17.46;72.81
40059;SHT31;25763;49.972;8.568;2023-04-28T11:19:00;17.51;73.77
40059;SHT31;25763;49.972;8.568;2023-04-28T11:21:29;17.60;73.24
40059;SHT31;25763;49.972;8.568;2023-04-28T11:23:56;17.39;73.67
40059;SHT31;25763;49.972;8.568;2023-04-28T11:26:23;17.60;72.75
40059;SHT31;25763;49.972;8.568;2023-04-28T11:28:58;17.63;72.86
40059;SHT31;25763;49.972;8.568;2023-04-28T11:31:25;17.61;73.33
40059;SHT31;25763;49.972;8.568;2023-04-28T11:33:57;17.85;73.28
40059;SHT31;25763;49.972;8.568;2023-04-28T11:36:28;17.41;73.50
40059;SHT31;25763;49.972;8.568;2023-04-28T11:38:55;17.08;73.70
40059;SHT31;25763;49.972;8.568;2023-04-28T11:41:21;17.33;74.22
40059;SHT31;25763;49.972;8.568;2023-04-28T11:43:47;17.53;73.98
40059;SHT31;25763;49.972;8.568;2023-04-28T11:46:17;17.54;73.78
40059;SHT31;25763;49.972;8.568;2023-04-28T11:48:43;17.47;73.81
40059;SHT31;25763;49.972;8.568;2023-04-28T11:51:08;17.51;73.89
40059;SHT31;25763;49.972;8.568;2023-04-28T11:53:43;17.46;74.07
40059;SHT31;25763;49.972;8.568;2023-04-28T11:56:09;17.50;74.01
40059;SHT31;25763;49.972;8.568;2023-04-28T11:58:34;17.65;73.61
40059;SHT31;25763;49.972;8.568;2023-04-28T12:01:07;17.82;73.99
40059;SHT31;25763;49.972;8.568;2023-04-28T12:03:42;17.88;73.64
40059;SHT31;25763;49.972;8.568;2023-04-28T12:06:07;17.77;73.73
40059;SHT31;25763;49.972;8.568;2023-04-28T12:08:33;17.75;73.75
40059;SHT31;25763;49.972;8.568;2023-04-28T12:11:11;18.12;73.64
40059;SHT31;25763;49.972;8.568;2023-04-28T12:13:37;18.17;73.50
40059;SHT31;25763;49.972;8.568;2023-04-28T12:16:04;18.24;72.94
40059;SHT31;25763;49.972;8.568;2023-04-28T12:18:34;18.31;73.01
40059;SHT31;25763;49.972;8.568;2023-04-28T12:21:01;18.54;73.42
40059;SHT31;25763;49.972;8.568;2023-04-28T12:23:34;18.67;72.30
40059;SHT31;25763;49.972;8.568;2023-04-28T12:26:00;18.71;71.92
40059;SHT31;25763;49.972;8.568;2023-04-28T12:28:36;18.69;71.94
40059;SHT31;25763;49.972;8.568;2023-04-28T12:31:05;18.94;71.62
40059;SHT31;25763;49.972;8.568;2023-04-28T12:33:32;19.02;70.90
40059;SHT31;25763;49.972;8.568;2023-04-28T12:36:05;19.08;70.74
40059;SHT31;25763;49.972;8.568;2023-04-28T12:38:31;19.32;70.30
40059;SHT31;25763;49.972;8.568;2023-04-28T12:40:57;19.51;70.89
40059;SHT31;25763;49.972;8.568;2023-04-28T12:43:23;19.79;69.80
40059;SHT31;25763;49.972;8.568;2023-04-28T12:45:49;19.84;69.15
40059;SHT31;25763;49.972;8.568;2023-04-28T12:48:15;19.70;69.54
40059;SHT31;25763;49.972;8.568;2023-04-28T12:50:40;19.12;70.78
40059;SHT31;25763;49.972;8.568;2023-04-28T12:53:05;19.24;70.40
40059;SHT31;25763;49.972;8.568;2023-04-28T12:55:31;19.48;69.30
40059;SHT31;25763;49.972;8.568;2023-04-28T12:57:56;19.23;69.11
40059;SHT31;25763;49.972;8.568;2023-04-28T13:00:22;18.97;70.86
40059;SHT31;25763;49.972;8.568;2023-04-28T13:02:49;18.80;71.39
40059;SHT31;25763;49.972;8.568;2023-04-28T13:05:15;18.50;72.36
40059;SHT31;25763;49.972;8.568;2023-04-28T13:07:41;18.41;72.85
40059;SHT31;25763;49.972;8.568;2023-04-28T13:10:07;18.38;72.96
40059;SHT31;25763;49.972;8.568;2023-04-28T13:12:33;18.21;74.06
40059;SHT31;25763;49.972;8.568;2023-04-28T13:15:00;18.00;75.12
40059;SHT31;25763;49.972;8.568;2023-04-28T13:17:26;18.14;75.10
40059;SHT31;25763;49.972;8.568;2023-04-28T13:19:52;18.30;75.06
40059;SHT31;25763;49.972;8.568;2023-04-28T13:22:18;18.58;74.58
40059;SHT31;25763;49.972;8.568;2023-04-28T13:24:46;18.62;74.31
40059;SHT31;25763;49.972;8.568;2023-04-28T13:27:11;18.59;74.01
40059;SHT31;25763;49.972;8.568;2023-04-28T13:29:37;18.51;73.72
40059;SHT31;25763;49.972;8.568;2023-04-28T13:32:02;18.27;74.79
40059;SHT31;25763;49.972;8.568;2023-04-28T13:34:29;18.14;75.13
40059;SHT31;25763;49.972;8.568;2023-04-28T13:36:55;18.13;75.10
40059;SHT31;25763;49.972;8.568;2023-04-28T13:39:21;17.99;75.83
40059;SHT31;25763;49.972;8.568;2023-04-28T13:41:47;17.99;75.85
40059;SHT31;25763;49.972;8.568;2023-04-28T13:44:14;18.10;76.12
40059;SHT31;25763;49.972;8.568;2023-04-28T13:46:40;18.02;76.33
40059;SHT31;25763;49.972;8.568;2023-04-28T13:49:07;18.17;75.98
40059;SHT31;25763;49.972;8.568;2023-04-28T13:51:33;18.02;76.10
40059;SHT31;25763;49.972;8.568;2023-04-28T13:53:58;17.93;76.28
40059;SHT31;25763;49.972;8.568;2023-04-28T13:56:24;17.92;76.51
40059;SHT31;25763;49.972;8.568;2023-04-28T13:58:49;17.86;76.50
40059;SHT31;25763;49.972;8.568;2023-04-28T14:01:14;17.81;76.69
40059;SHT31;25763;49.972;8.568;2023-04-28T14:03:40;17.68;77.33
40059;SHT31;25763;49.972;8.568;2023-04-28T14:06:06;17.78;77.29
40059;SHT31;25763;49.972;8.568;2023-04-28T14:08:32;17.96;77.23
40059;SHT31;25763;49.972;8.568;2023-04-28T14:10:58;18.33;76.21
40059;SHT31;25763;49.972;8.568;2023-04-28T14:13:24;18.45;76.39
40059;SHT31;25763;49.972;8.568;2023-04-28T14:15:50;18.57;76.11
40059;SHT31;25763;49.972;8.568;2023-04-28T14:18:17;18.62;76.01
40059;SHT31;25763;49.972;8.568;2023-04-28T14:20:42;18.76;76.14
40059;SHT31;25763;49.972;8.568;2023-04-28T14:23:08;18.93;75.52
40059;SHT31;25763;49.972;8.568;2023-04-28T14:25:33;18.99;74.47
40059;SHT31;25763;49.972;8.568;2023-04-28T14:27:58;19.00;74.27
40059;SHT31;25763;49.972;8.568;2023-04-28T14:30:24;18.85;75.23
40059;SHT31;25763;49.972;8.568;2023-04-28T14:32:51;18.89;75.21
40059;SHT31;25763;49.972;8.568;2023-04-28T14:35:17;18.93;74.56
40059;SHT31;25763;49.972;8.568;2023-04-28T14:37:45;19.03;74.41
40059;SHT31;25763;49.972;8.568;2023-04-28T14:40:10;19.42;74.59
40059;SHT31;25763;49.972;8.568;2023-04-28T14:42:36;19.26;73.17
40059;SHT31;25763;49.972;8.568;2023-04-28T14:45:02;19.10;73.80
40059;SHT31;25763;49.972;8.568;2023-04-28T14:47:28;18.96;73.84
40059;SHT31;25763;49.972;8.568;2023-04-28T14:49:54;18.89;73.87
40059;SHT31;25763;49.972;8.568;2023-04-28T14:52:21;19.04;73.54
40059;SHT31;25763;49.972;8.568;2023-04-28T14:54:50;19.06;73.87
40059;SHT31;25763;49.972;8.568;2023-04-28T14:57:15;19.08;74.35
40059;SHT31;25763;49.972;8.568;2023-04-28T14:59:40;19.39;73.43
40059;SHT31;25763;49.972;8.568;2023-04-28T15:02:06;19.31;73.62
40059;SHT31;25763;49.972;8.568;2023-04-28T15:04:32;19.14;73.99
40059;SHT31;25763;49.972;8.568;2023-04-28T15:06:58;18.92;74.64
40059;SHT31;25763;49.972;8.568;2023-04-28T15:09:24;18.87;74.90
40059;SHT31;25763;49.972;8.568;2023-04-28T15:11:50;19.03;74.72
40059;SHT31;25763;49.972;8.568;2023-04-28T15:14:16;19.12;74.42
40059;SHT31;25763;49.972;8.568;2023-04-28T15:16:42;19.51;74.01
40059;SHT31;25763;49.972;8.568;2023-04-28T15:19:07;19.70;73.23
40059;SHT31;25763;49.972;8.568;2023-04-28T15:21:33;19.63;72.90
40059;SHT31;25763;49.972;8.568;2023-04-28T15:23:59;19.66;72.56
40059;SHT31;25763;49.972;8.568;2023-04-28T15:26:25;20.14;70.89
40059;SHT31;25763;49.972;8.568;2023-04-28T15:28:52;20.47;69.41
40059;SHT31;25763;49.972;8.568;2023-04-28T15:31:18;20.04;70.59
40059;SHT31;25763;49.972;8.568;2023-04-28T15:33:43;19.59;71.09
40059;SHT31;25763;49.972;8.568;2023-04-28T15:36:08;19.46;71.71
40059;SHT31;25763;49.972;8.568;2023-04-28T15:38:34;19.45;72.70
40059;SHT31;25763;49.972;8.568;2023-04-28T15:40:59;19.66;72.65
40059;SHT31;25763;49.972;8.568;2023-04-28T15:43:25;19.15;73.60
40059;SHT31;25763;49.972;8.568;2023-04-28T15:45:50;19.08;74.09
40059;SHT31;25763;49.972;8.568;2023-04-28T15:48:16;19.41;73.49
40059;SHT31;25763;49.972;8.568;2023-04-28T15:50:42;19.00;74.45